createdAt,value
2018-09-24T00:01:19.504Z,1.20
2018-09-24T00:03:48.230Z,1.00
2018-09-24T00:06:16.448Z,1.30
2018-09-24T00:08:44.684Z,1.03
2018-09-24T00:11:12.906Z,1.02
2018-09-24T00:13:41.202Z,1.20
2018-09-24T00:16:09.519Z,1.17
2018-09-24T00:18:37.849Z,1.00
2018-09-24T00:21:06.084Z,1.07
2018-09-24T00:23:34.315Z,0.90
2018-09-24T00:26:02.517Z,0.85
2018-09-24T00:28:30.739Z,1.27
2018-09-24T00:30:59.822Z,1.00
2018-09-24T00:33:28.002Z,1.20
2018-09-24T00:35:56.128Z,1.00
2018-09-24T00:38:24.294Z,0.90
2018-09-24T00:40:52.436Z,1.00
2018-09-24T00:43:20.612Z,0.80
2018-09-24T00:45:49.165Z,0.97
2018-09-24T00:48:17.403Z,1.03
2018-09-24T00:50:45.552Z,1.00
2018-09-24T00:53:13.719Z,0.90
2018-09-24T00:55:41.960Z,1.00
2018-09-24T00:58:10.212Z,0.80
2018-09-24T01:00:38.466Z,0.80
2018-09-24T01:03:06.859Z,1.27
2018-09-24T01:05:35.182Z,1.10
2018-09-24T01:08:03.946Z,1.30
2018-09-24T01:10:32.111Z,1.10
2018-09-24T01:13:00.245Z,1.07
2018-09-24T01:15:28.561Z,1.00
2018-09-24T01:17:56.851Z,1.10
2018-09-24T01:20:25.016Z,1.30
2018-09-24T01:22:53.271Z,1.13
2018-09-24T01:25:21.354Z,1.10
2018-09-24T01:27:49.623Z,1.30
2018-09-24T01:30:17.964Z,1.20
2018-09-24T01:32:46.126Z,0.93
2018-09-24T01:35:14.310Z,1.17
2018-09-24T01:37:42.502Z,1.20
2018-09-24T01:40:10.687Z,1.03
2018-09-24T01:42:38.886Z,1.00
2018-09-24T01:45:07.076Z,1.50
2018-09-24T01:47:35.258Z,1.17
2018-09-24T01:50:06.578Z,1.20
2018-09-24T01:52:34.759Z,1.30
2018-09-24T01:55:03.707Z,1.37
2018-09-24T01:57:31.860Z,1.07
2018-09-24T02:00:00.072Z,1.00
2018-09-24T02:02:28.296Z,1.50
2018-09-24T02:04:56.506Z,1.50
2018-09-24T02:07:24.702Z,1.30
2018-09-24T02:09:52.972Z,1.20
2018-09-24T02:12:21.223Z,1.10
2018-09-24T02:14:49.504Z,1.05
2018-09-24T02:17:20.523Z,1.33
2018-09-24T02:19:49.683Z,1.20
2018-09-24T02:22:26.277Z,1.37
2018-09-24T02:24:55.161Z,1.00
2018-09-24T02:27:23.309Z,1.00
2018-09-24T02:29:51.506Z,1.50
2018-09-24T02:32:19.750Z,1.60
2018-09-24T02:34:49.039Z,1.10
2018-09-24T02:37:18.121Z,1.27
2018-09-24T02:39:46.500Z,1.30
2018-09-24T02:42:15.284Z,1.37
2018-09-24T02:44:43.497Z,1.10
2018-09-24T02:47:11.681Z,1.50
2018-09-24T02:49:39.830Z,1.37
2018-09-24T02:52:08.071Z,1.20
2018-09-24T02:54:36.789Z,1.32
2018-09-24T02:57:05.051Z,1.20
2018-09-24T02:59:33.222Z,1.50
2018-09-24T03:02:01.440Z,1.17
2018-09-24T03:04:29.663Z,1.43
2018-09-24T03:06:57.881Z,1.42
2018-09-24T03:09:26.076Z,1.27
2018-09-24T03:11:54.399Z,1.57
2018-09-24T03:14:24.194Z,1.57
2018-09-24T03:16:53.115Z,1.27
2018-09-24T03:19:21.398Z,1.43
2018-09-24T03:21:49.652Z,1.40
2018-09-24T03:24:17.871Z,1.27
2018-09-24T03:26:46.031Z,1.47
2018-09-24T03:29:20.485Z,1.30
2018-09-24T03:31:48.745Z,1.20
2018-09-24T03:34:18.131Z,1.43
2018-09-24T03:36:47.127Z,1.80
2018-09-24T03:39:15.356Z,1.53
2018-09-24T03:41:43.972Z,1.30
2018-09-24T03:44:12.286Z,1.43
2018-09-24T03:46:40.940Z,1.60
2018-09-24T03:49:09.335Z,1.60
2018-09-24T03:51:37.498Z,1.97
2018-09-24T03:54:05.681Z,1.40
2018-09-24T03:56:33.862Z,1.50
2018-09-24T03:59:02.776Z,1.60
2018-09-24T04:01:30.834Z,1.93
2018-09-24T04:04:04.405Z,1.67
2018-09-24T04:06:37.961Z,1.42
2018-09-24T04:09:13.735Z,1.80
2018-09-24T04:11:47.773Z,1.85
2018-09-24T04:14:21.337Z,2.37
2018-09-24T04:16:55.195Z,1.67
2018-09-24T04:19:28.971Z,2.13
2018-09-24T04:22:02.522Z,2.20
2018-09-24T04:24:36.035Z,2.13
2018-09-24T04:27:09.567Z,2.00
2018-09-24T04:29:43.133Z,1.87
2018-09-24T04:32:16.764Z,2.70
2018-09-24T04:34:50.240Z,1.72
2018-09-24T04:37:23.924Z,1.50
2018-09-24T04:39:57.506Z,2.00
2018-09-24T04:42:31.187Z,2.23
2018-09-24T04:45:04.830Z,1.87
2018-09-24T04:47:38.566Z,2.60
2018-09-24T04:50:12.272Z,2.20
2018-09-24T04:52:45.782Z,2.25
2018-09-24T04:55:19.131Z,2.47
2018-09-24T04:57:52.644Z,2.37
2018-09-24T05:00:25.988Z,1.93
2018-09-24T05:02:59.644Z,2.40
2018-09-24T05:05:33.166Z,2.72
2018-09-24T05:08:06.816Z,2.20
2018-09-24T05:10:40.307Z,2.15
2018-09-24T05:13:13.855Z,2.20
2018-09-24T05:15:47.711Z,2.42
2018-09-24T05:18:21.232Z,3.27
2018-09-24T05:20:54.929Z,2.50
2018-09-24T05:23:28.352Z,2.33
2018-09-24T05:26:01.761Z,2.52
2018-09-24T05:28:35.260Z,3.27
2018-09-24T05:31:08.886Z,2.90
2018-09-24T05:33:42.606Z,2.20
2018-09-24T05:36:16.050Z,2.90
2018-09-24T05:38:49.611Z,2.60
2018-09-24T05:41:23.177Z,2.65
2018-09-24T05:43:56.843Z,3.73
2018-09-24T05:46:30.547Z,2.50
2018-09-24T05:49:04.316Z,1.90
2018-09-24T05:51:37.891Z,2.53
2018-09-24T05:54:11.770Z,2.40
2018-09-24T05:56:45.246Z,2.70
2018-09-24T05:59:18.882Z,1.62
2018-09-24T06:01:52.538Z,3.00
2018-09-24T06:04:26.144Z,2.50
2018-09-24T06:06:59.988Z,1.97
2018-09-24T06:09:33.457Z,2.27
2018-09-24T06:12:07.070Z,1.90
2018-09-24T06:14:40.657Z,2.00
2018-09-24T06:17:14.318Z,2.33
2018-09-24T06:19:48.023Z,2.20
2018-09-24T06:22:21.467Z,2.67
2018-09-24T06:24:55.090Z,2.47
2018-09-24T06:27:28.787Z,1.80
2018-09-24T06:30:02.937Z,2.50
2018-09-24T06:32:36.397Z,2.30
2018-09-24T06:35:10.048Z,2.43
2018-09-24T06:37:43.599Z,2.20
2018-09-24T06:40:17.347Z,2.83
2018-09-24T06:42:50.816Z,2.40
2018-09-24T06:45:24.313Z,2.10
2018-09-24T06:47:57.923Z,2.77
2018-09-24T06:50:31.531Z,2.27
2018-09-24T06:53:05.123Z,1.80
2018-09-24T06:55:38.720Z,2.10
2018-09-24T06:58:12.904Z,2.10
2018-09-24T07:00:46.485Z,2.25
2018-09-24T07:03:20.847Z,4.05
2018-09-24T07:05:54.880Z,1.73
2018-09-24T07:08:28.342Z,1.63
2018-09-24T07:11:01.864Z,1.97
2018-09-24T07:13:35.449Z,2.17
2018-09-24T07:16:08.912Z,2.02
2018-09-24T07:18:42.542Z,1.77
2018-09-24T07:21:16.130Z,1.87
2018-09-24T07:23:49.707Z,2.07
2018-09-24T07:26:23.170Z,1.70
2018-09-24T07:28:56.699Z,1.60
2018-09-24T07:31:30.233Z,1.73
2018-09-24T07:34:03.812Z,2.20
2018-09-24T07:36:37.511Z,2.47
2018-09-24T07:39:14.571Z,1.80
2018-09-24T07:41:48.938Z,2.20
2018-09-24T07:44:22.524Z,1.83
2018-09-24T07:46:56.068Z,1.80
2018-09-24T07:49:29.640Z,2.07
2018-09-24T07:52:03.199Z,1.57
2018-09-24T07:54:36.761Z,1.60
2018-09-24T07:57:10.455Z,2.07
2018-09-24T07:59:44.022Z,2.40
2018-09-24T08:02:17.663Z,1.90
2018-09-24T08:04:51.201Z,1.43
2018-09-24T08:07:24.685Z,1.80
2018-09-24T08:09:58.107Z,1.57
2018-09-24T08:12:31.578Z,1.92
2018-09-24T08:15:05.225Z,1.83
2018-09-24T08:17:38.784Z,3.95
2018-09-24T08:20:12.275Z,1.43
2018-09-24T08:22:45.931Z,1.40
2018-09-24T08:25:19.518Z,1.80
2018-09-24T08:27:53.419Z,1.30
2018-09-24T08:30:27.027Z,1.87
2018-09-24T08:33:00.696Z,1.47
2018-09-24T08:35:34.461Z,1.37
2018-09-24T08:38:07.988Z,2.20
2018-09-24T08:40:41.554Z,1.37
2018-09-24T08:43:15.128Z,1.87
2018-09-24T08:45:48.796Z,1.10
2018-09-24T08:48:22.397Z,0.97
2018-09-24T08:50:55.850Z,1.47
2018-09-24T08:53:29.657Z,1.30
2018-09-24T08:56:03.075Z,1.30
2018-09-24T08:58:36.838Z,1.47
2018-09-24T09:01:10.500Z,0.90
2018-09-24T09:03:44.250Z,1.00
2018-09-24T09:06:17.903Z,1.20
2018-09-24T09:08:51.601Z,1.12
2018-09-24T09:11:25.333Z,1.33
2018-09-24T09:13:59.159Z,1.03
2018-09-24T09:16:32.810Z,1.10
2018-09-24T09:19:06.409Z,1.20
2018-09-24T09:21:40.110Z,1.20
2018-09-24T09:24:13.835Z,0.80
2018-09-24T09:26:47.522Z,1.00
2018-09-24T09:29:21.188Z,1.17
2018-09-24T09:31:55.347Z,0.80
2018-09-24T09:34:29.042Z,1.37
2018-09-24T09:37:02.654Z,1.00
2018-09-24T09:39:36.082Z,1.20
2018-09-24T09:42:09.683Z,1.00
2018-09-24T09:44:43.305Z,1.00
2018-09-24T09:47:16.928Z,1.10
2018-09-24T09:49:50.654Z,0.90
2018-09-24T09:52:24.199Z,1.00
2018-09-24T09:54:57.701Z,1.07
2018-09-24T09:57:31.321Z,1.27
2018-09-24T10:00:04.798Z,0.97
2018-09-24T10:02:38.420Z,1.13
2018-09-24T10:05:12.219Z,1.13
2018-09-24T10:07:45.864Z,0.90
2018-09-24T10:10:19.471Z,0.70
2018-09-24T10:12:53.136Z,0.97
2018-09-24T10:15:26.678Z,0.90
2018-09-24T10:18:00.739Z,1.10
2018-09-24T10:20:34.431Z,0.80
2018-09-24T10:23:08.008Z,0.90
2018-09-24T10:25:41.671Z,1.03
2018-09-24T10:28:15.424Z,1.33
2018-09-24T10:30:48.941Z,0.83
2018-09-24T10:33:22.583Z,0.90
2018-09-24T10:35:56.269Z,1.40
2018-09-24T10:38:29.883Z,0.87
2018-09-24T10:41:03.531Z,1.10
2018-09-24T10:43:37.244Z,1.00
2018-09-24T10:46:11.003Z,1.87
2018-09-24T10:48:44.412Z,0.93
2018-09-24T10:51:17.969Z,0.83
2018-09-24T10:53:51.641Z,1.20
2018-09-24T10:56:25.268Z,1.00
2018-09-24T10:58:59.083Z,0.93
2018-09-24T11:01:32.740Z,0.87
2018-09-24T11:04:06.531Z,1.30
2018-09-24T11:06:40.125Z,0.70
2018-09-24T11:09:14.265Z,0.93
2018-09-24T11:11:47.860Z,0.80
2018-09-24T11:14:21.533Z,0.90
2018-09-24T11:16:55.283Z,1.40
2018-09-24T11:19:29.236Z,1.00
2018-09-24T11:22:02.973Z,1.03
2018-09-24T11:24:36.556Z,1.33
2018-09-24T11:27:09.956Z,0.90
2018-09-24T11:29:43.684Z,0.90
2018-09-24T11:32:17.307Z,0.87
2018-09-24T11:34:50.856Z,0.70
2018-09-24T11:37:24.449Z,0.97
2018-09-24T11:39:58.024Z,0.70
2018-09-24T11:42:32.793Z,0.70
2018-09-24T11:45:08.983Z,1.07
2018-09-24T11:47:43.467Z,1.03
2018-09-24T11:50:18.565Z,0.80
2018-09-24T11:52:52.165Z,0.88
2018-09-24T11:55:26.219Z,0.87
2018-09-24T11:58:00.335Z,0.70
2018-09-24T12:00:33.838Z,0.90
2018-09-24T12:03:07.637Z,0.80
2018-09-24T12:05:41.479Z,0.97
2018-09-24T12:08:14.944Z,0.80
2018-09-24T12:10:48.640Z,1.10
2018-09-24T12:13:22.256Z,0.80
2018-09-24T12:15:55.887Z,0.90
2018-09-24T12:18:29.474Z,1.03
2018-09-24T12:21:03.095Z,1.00
2018-09-24T12:23:36.657Z,1.00
2018-09-24T12:26:10.205Z,0.97
2018-09-24T12:28:43.799Z,0.90
2018-09-24T12:31:17.523Z,0.70
2018-09-24T12:33:51.043Z,0.83
2018-09-24T12:36:24.710Z,1.07
2018-09-24T12:38:58.270Z,0.70
2018-09-24T12:41:32.093Z,0.80
2018-09-24T12:44:05.698Z,1.20
2018-09-24T12:46:39.291Z,0.72
2018-09-24T12:49:12.908Z,2.07
2018-09-24T12:51:46.454Z,1.20
2018-09-24T12:54:20.194Z,0.93
2018-09-24T12:56:53.695Z,1.20
2018-09-24T12:59:27.259Z,0.90
2018-09-24T13:02:00.972Z,0.70
2018-09-24T13:04:34.662Z,0.80
2018-09-24T13:07:08.291Z,0.90
2018-09-24T13:09:41.738Z,1.00
2018-09-24T13:12:15.216Z,1.00
2018-09-24T13:14:48.864Z,0.93
2018-09-24T13:17:22.464Z,0.70
2018-09-24T13:19:56.063Z,1.00
2018-09-24T13:22:29.564Z,0.80
2018-09-24T13:25:04.013Z,0.90
2018-09-24T13:27:37.488Z,0.80
2018-09-24T13:30:11.149Z,0.70
2018-09-24T13:32:44.929Z,0.70
2018-09-24T13:35:18.597Z,0.70
2018-09-24T13:37:52.189Z,0.80
2018-09-24T13:40:25.901Z,0.87
2018-09-24T13:42:59.548Z,1.05
2018-09-24T13:45:33.217Z,0.80
2018-09-24T13:48:06.754Z,0.75
2018-09-24T13:50:40.352Z,0.70
2018-09-24T13:53:13.979Z,0.80
2018-09-24T13:55:47.558Z,0.80
2018-09-24T13:58:21.253Z,0.93
2018-09-24T14:00:54.769Z,0.73
2018-09-24T14:03:28.308Z,0.93
2018-09-24T14:06:01.889Z,0.80
2018-09-24T14:08:35.663Z,0.60
2018-09-24T14:11:09.237Z,1.10
2018-09-24T14:13:42.973Z,0.78
2018-09-24T14:16:16.617Z,0.57
2018-09-24T14:18:50.313Z,0.70
2018-09-24T14:21:23.824Z,0.87
2018-09-24T14:23:57.456Z,0.80
2018-09-24T14:26:31.060Z,0.80
2018-09-24T14:29:04.775Z,0.73
2018-09-24T14:31:38.441Z,0.70
2018-09-24T14:34:12.218Z,1.07
2018-09-24T14:36:45.892Z,0.60
2018-09-24T14:39:19.509Z,0.67
2018-09-24T14:41:53.243Z,0.70
2018-09-24T14:44:26.926Z,0.70
2018-09-24T14:47:00.382Z,0.67
2018-09-24T14:49:33.980Z,0.60
2018-09-24T14:52:07.683Z,0.68
2018-09-24T14:54:41.279Z,0.70
2018-09-24T14:57:14.740Z,0.50
2018-09-24T14:59:48.413Z,0.90
2018-09-24T15:02:21.968Z,0.60
2018-09-24T15:04:55.582Z,0.70
2018-09-24T15:07:29.361Z,0.80
2018-09-24T15:10:03.003Z,0.70
2018-09-24T15:12:36.616Z,0.60
2018-09-24T15:15:10.060Z,0.70
2018-09-24T15:17:43.671Z,0.72
2018-09-24T15:20:17.475Z,0.70
2018-09-24T15:22:51.188Z,0.73
2018-09-24T15:25:24.802Z,0.60
2018-09-24T15:27:58.234Z,0.77
2018-09-24T15:30:31.871Z,0.60
2018-09-24T15:33:05.495Z,0.80
2018-09-24T15:35:39.431Z,0.85
2018-09-24T15:38:13.269Z,0.60
2018-09-24T15:40:46.965Z,0.70
2018-09-24T15:43:20.429Z,0.70
2018-09-24T15:45:54.111Z,0.80
2018-09-24T15:48:27.740Z,0.90
2018-09-24T15:51:01.528Z,0.70
2018-09-24T15:53:35.157Z,0.93
2018-09-24T15:56:08.759Z,0.70
2018-09-24T15:58:42.682Z,0.77
2018-09-24T16:01:16.406Z,0.70
2018-09-24T16:03:49.962Z,0.70
2018-09-24T16:06:23.462Z,0.73
2018-09-24T16:08:57.065Z,0.80
2018-09-24T16:11:30.539Z,0.90
2018-09-24T16:14:03.896Z,0.60
2018-09-24T16:16:37.472Z,0.80
2018-09-24T16:19:11.769Z,0.85
2018-09-24T16:21:45.279Z,1.10
2018-09-24T16:24:18.846Z,0.77
2018-09-24T16:26:52.380Z,0.60
2018-09-24T16:29:26.095Z,0.75
2018-09-24T16:31:59.672Z,0.80
2018-09-24T16:34:33.289Z,1.42
2018-09-24T16:37:06.971Z,1.40
2018-09-24T16:39:40.611Z,0.70
2018-09-24T16:42:14.249Z,1.07
2018-09-24T16:44:47.683Z,0.90
2018-09-24T16:47:21.292Z,0.83
2018-09-24T16:49:55.006Z,0.80
2018-09-24T16:52:28.865Z,0.70
2018-09-24T16:55:02.535Z,0.90
2018-09-24T16:57:36.032Z,0.73
2018-09-24T17:00:09.700Z,0.65
2018-09-24T17:02:44.032Z,0.80
2018-09-24T17:05:18.110Z,0.70
2018-09-24T17:07:51.839Z,0.83
2018-09-24T17:10:25.460Z,0.60
2018-09-24T17:12:59.246Z,0.90
2018-09-24T17:15:32.796Z,1.00
2018-09-24T17:18:06.254Z,1.13
2018-09-24T17:20:39.888Z,0.77
2018-09-24T17:23:13.610Z,0.90
2018-09-24T17:25:47.199Z,0.90
2018-09-24T17:28:20.637Z,1.10
2018-09-24T17:30:55.692Z,0.90
2018-09-24T17:33:29.348Z,0.90
2018-09-24T17:36:09.777Z,0.90
2018-09-24T17:38:43.287Z,0.80
2018-09-24T17:41:18.486Z,0.97
2018-09-24T17:43:52.062Z,0.80
2018-09-24T17:46:25.781Z,0.88
2018-09-24T17:48:59.315Z,1.10
2018-09-24T17:51:32.932Z,1.00
2018-09-24T17:54:06.601Z,0.90
2018-09-24T17:56:40.075Z,0.70
2018-09-24T17:59:13.708Z,0.63
2018-09-24T18:01:47.211Z,0.70
2018-09-24T18:04:20.911Z,0.90
2018-09-24T18:06:54.642Z,0.90
2018-09-24T18:09:28.324Z,0.90
2018-09-24T18:12:01.934Z,0.90
2018-09-24T18:14:35.526Z,0.82
2018-09-24T18:17:09.095Z,0.90
2018-09-24T18:19:42.592Z,0.80
2018-09-24T18:22:16.331Z,0.90
2018-09-24T18:24:50.517Z,0.93
2018-09-24T18:27:24.091Z,1.33
2018-09-24T18:29:57.579Z,1.20
2018-09-24T18:32:31.031Z,1.30
2018-09-24T18:35:04.607Z,1.07
2018-09-24T18:37:38.328Z,1.10
2018-09-24T18:40:11.906Z,1.20
2018-09-24T18:42:45.591Z,1.22
2018-09-24T18:45:19.227Z,1.00
2018-09-24T18:47:52.808Z,1.70
2018-09-24T18:50:26.516Z,1.27
2018-09-24T18:53:00.302Z,1.25
2018-09-24T18:55:33.978Z,1.00
2018-09-24T18:58:07.421Z,1.20
2018-09-24T19:00:41.096Z,1.67
2018-09-24T19:03:14.609Z,1.25
2018-09-24T19:05:48.111Z,1.42
2018-09-24T19:08:21.651Z,1.30
2018-09-24T19:10:55.278Z,1.60
2018-09-24T19:13:28.797Z,1.87
2018-09-24T19:16:02.555Z,1.60
2018-09-24T19:18:36.128Z,1.80
2018-09-24T19:21:09.537Z,2.12
2018-09-24T19:23:43.314Z,1.70
2018-09-24T19:26:16.883Z,1.98
2018-09-24T19:28:50.443Z,2.10
2018-09-24T19:31:24.114Z,1.90
2018-09-24T19:33:57.522Z,1.45
2018-09-24T19:36:30.991Z,1.90
2018-09-24T19:39:04.447Z,1.90
2018-09-24T19:41:38.145Z,1.60
2018-09-24T19:44:11.767Z,2.33
2018-09-24T19:46:46.235Z,1.57
2018-09-24T19:49:19.932Z,1.20
2018-09-24T19:51:53.732Z,1.40
2018-09-24T19:54:27.297Z,1.40
2018-09-24T19:57:00.880Z,1.60
2018-09-24T19:59:34.598Z,1.20
2018-09-24T20:02:08.178Z,1.40
2018-09-24T20:04:41.787Z,1.50
2018-09-24T20:07:15.215Z,1.42
2018-09-24T20:09:48.855Z,1.95
2018-09-24T20:12:22.491Z,1.35
2018-09-24T20:14:55.985Z,1.40
2018-09-24T20:17:29.534Z,1.40
2018-09-24T20:20:03.155Z,1.82
2018-09-24T20:22:36.673Z,1.40
2018-09-24T20:25:10.287Z,1.30
2018-09-24T20:27:44.102Z,1.50
2018-09-24T20:30:17.525Z,1.55
2018-09-24T20:32:51.200Z,1.70
2018-09-24T20:35:24.696Z,1.20
2018-09-24T20:37:58.127Z,1.50
2018-09-24T20:40:31.847Z,1.20
2018-09-24T20:43:05.594Z,1.85
2018-09-24T20:45:39.204Z,1.35
2018-09-24T20:48:12.677Z,0.95
2018-09-24T20:50:46.020Z,1.22
2018-09-24T20:53:19.543Z,1.00
2018-09-24T20:55:53.271Z,1.10
2018-09-24T20:58:26.707Z,1.05
2018-09-24T21:01:00.287Z,1.10
2018-09-24T21:03:33.919Z,1.30
2018-09-24T21:06:07.507Z,1.57
2018-09-24T21:08:41.047Z,1.30
2018-09-24T21:11:14.482Z,1.20
2018-09-24T21:13:48.150Z,1.35
2018-09-24T21:16:21.725Z,1.55
2018-09-24T21:18:55.279Z,1.90
2018-09-24T21:21:28.912Z,1.50
2018-09-24T21:24:02.442Z,1.65
2018-09-24T21:26:35.799Z,1.30
2018-09-24T21:29:09.449Z,1.32
2018-09-24T21:31:42.899Z,1.15
2018-09-24T21:34:16.423Z,1.50
2018-09-24T21:36:50.129Z,1.40
2018-09-24T21:39:24.153Z,1.05
2018-09-24T21:41:57.656Z,1.32
2018-09-24T21:44:31.231Z,1.07
2018-09-24T21:47:04.785Z,1.05
2018-09-24T21:49:38.179Z,1.20
2018-09-24T21:52:11.840Z,1.40
2018-09-24T21:54:45.344Z,1.00
2018-09-24T21:57:19.007Z,1.00
2018-09-24T22:02:52.644Z,0.98
2018-09-24T22:05:26.123Z,1.02
2018-09-24T22:07:59.624Z,0.85
2018-09-24T22:10:33.040Z,1.22
2018-09-24T22:13:06.579Z,0.88
2018-09-24T22:15:40.211Z,1.20
2018-09-24T22:18:13.910Z,1.07
2018-09-24T22:20:47.347Z,0.90
2018-09-24T22:23:21.025Z,1.25
2018-09-24T22:25:54.468Z,1.00
2018-09-24T22:28:28.093Z,0.90
2018-09-24T22:31:01.498Z,1.10
2018-09-24T22:33:35.047Z,1.12
2018-09-24T22:36:08.712Z,1.20
2018-09-24T22:38:42.165Z,1.00
2018-09-24T22:41:15.622Z,1.40
2018-09-24T22:43:49.094Z,1.55
2018-09-24T22:46:22.688Z,1.15
2018-09-24T22:48:56.137Z,1.30
2018-09-24T22:51:29.883Z,1.30
2018-09-24T22:54:03.275Z,1.60
2018-09-24T22:56:36.701Z,1.30
2018-09-24T22:59:10.210Z,1.57
2018-09-24T23:01:43.727Z,1.07
2018-09-24T23:04:17.499Z,2.27
2018-09-24T23:06:51.083Z,1.12
2018-09-24T23:09:24.531Z,1.42
2018-09-24T23:11:58.291Z,1.17
2018-09-24T23:14:31.795Z,1.20
2018-09-24T23:17:05.326Z,1.47
2018-09-24T23:19:38.907Z,1.52
2018-09-24T23:22:12.365Z,1.15
2018-09-24T23:24:45.900Z,1.40
2018-09-24T23:27:19.344Z,1.50
2018-09-24T23:29:52.975Z,1.20
2018-09-24T23:32:26.563Z,1.10
2018-09-24T23:35:00.187Z,1.90
2018-09-24T23:37:33.667Z,1.00
2018-09-24T23:40:14.010Z,1.50
2018-09-24T23:42:47.695Z,1.22
2018-09-24T23:45:21.431Z,1.42
2018-09-24T23:47:55.011Z,2.50
2018-09-24T23:50:28.699Z,1.82
2018-09-24T23:53:02.052Z,2.00
2018-09-24T23:55:35.699Z,1.55
2018-09-24T23:58:09.110Z,1.65
